KGUS/GUS METAR and TAF weather

Enter ICAO airport designator
Station Type Date Time Source
KGUS METAR 2022/06/30 00:56 UTC NOAA

KGUS 300056Z AUTO 21005KT 10SM CLR 26/16 A3015 RMK AO2 SLP208 T02590164 $


Station Type Date Time Source
KGUS Decoded METAR 2022/06/30 00:56 UTC NOAA

Grissom Air Force Base / Peru, IN, United States (KGUS) 40-39N 086-09W
Jun 29, 2022 - 08:56 PM EDT / 2022.06.30 0056 UTC
Wind: from the SSW (210 degrees) at 6 MPH (5 KT):0
Visibility: 10 mile(s):0
Sky conditions: clear
Temperature: 78.6 F (25.9 C)
Dew Point: 61.5 F (16.4 C)
Relative Humidity: 55%
Pressure (altimeter): 30.15 in. Hg (1020 hPa)
ob: KGUS 300056Z AUTO 21005KT 10SM CLR 26/16 A3015 RMK AO2 SLP208 T02590164
cycle: 1

Station Type Date Time Source
KGUS TAF 2022/06/29 21:06 UTC NOAA

TAF TAF KGUS 292100Z 2921/0103 23009KT 9999 FEW050 QNH3018INS
BECMG 3014/3015 20010G15KT 9999 SKC QNH3004INS TX32/3020Z TN16/3008Z LAST NO
AMDS AFT 3003 NEXT 3013

Example: see airport list